createdAt,value
2023-05-22T00:00:03.097Z,0.00
2023-05-22T00:01:03.007Z,0.00
2023-05-22T00:02:03.100Z,0.00
2023-05-22T00:03:03.139Z,0.00
2023-05-22T00:04:03.059Z,0.00
2023-05-22T00:05:03.020Z,0.00
2023-05-22T00:06:03.045Z,0.00
2023-05-22T00:07:02.951Z,0.00
2023-05-22T00:08:03.021Z,0.00
2023-05-22T00:09:02.934Z,0.00
2023-05-22T00:10:02.984Z,0.00
2023-05-22T00:11:02.904Z,0.00
2023-05-22T00:12:02.966Z,0.00
2023-05-22T00:13:02.877Z,0.00
2023-05-22T00:14:02.960Z,0.00
2023-05-22T00:15:02.908Z,0.00
2023-05-22T00:16:02.951Z,0.00
2023-05-22T00:17:02.856Z,0.00
2023-05-22T00:18:03.026Z,0.00
2023-05-22T00:19:02.828Z,0.00
2023-05-22T00:20:02.897Z,0.00
2023-05-22T00:21:02.790Z,0.00
2023-05-22T00:22:02.870Z,0.00
2023-05-22T00:23:02.769Z,0.00
2023-05-22T00:24:02.831Z,0.00
2023-05-22T00:25:02.748Z,0.00
2023-05-22T00:26:02.845Z,0.00
2023-05-22T00:27:02.767Z,0.00
2023-05-22T00:28:02.801Z,0.00
2023-05-22T00:29:02.708Z,0.00
2023-05-22T00:30:02.788Z,0.00
2023-05-22T00:31:02.687Z,0.00
2023-05-22T00:32:02.762Z,0.00
2023-05-22T00:33:02.705Z,0.00
2023-05-22T00:34:02.761Z,0.00
2023-05-22T00:35:02.644Z,0.00
2023-05-22T00:36:02.730Z,0.00
2023-05-22T00:37:02.626Z,0.00
2023-05-22T00:38:02.701Z,0.00
2023-05-22T00:39:02.597Z,0.00
2023-05-22T00:40:02.678Z,0.00
2023-05-22T00:41:02.602Z,0.00
2023-05-22T00:42:02.653Z,0.00
2023-05-22T00:43:02.581Z,0.00
2023-05-22T00:44:02.630Z,0.00
2023-05-22T00:45:02.540Z,0.00
2023-05-22T00:46:02.661Z,0.00
2023-05-22T00:47:02.551Z,0.00
2023-05-22T00:48:02.627Z,0.00
2023-05-22T00:49:02.509Z,0.00
2023-05-22T00:50:02.546Z,0.00
2023-05-22T00:51:02.483Z,0.00
2023-05-22T00:52:02.538Z,0.00
2023-05-22T00:53:02.469Z,0.00
2023-05-22T00:54:02.811Z,0.00
2023-05-22T00:55:02.472Z,0.00
2023-05-22T00:56:02.507Z,0.00
2023-05-22T00:57:02.420Z,0.00
2023-05-22T00:58:02.476Z,0.00
2023-05-22T00:59:02.403Z,0.00
2023-05-22T01:00:02.465Z,0.00
2023-05-22T01:01:02.395Z,0.00
2023-05-22T01:02:02.500Z,0.00
2023-05-22T01:03:02.484Z,0.00
2023-05-22T01:04:02.448Z,0.00
2023-05-22T01:05:02.468Z,0.00
2023-05-22T01:06:02.388Z,0.00
2023-05-22T01:07:02.315Z,0.00
2023-05-22T01:08:02.349Z,0.00
2023-05-22T01:09:02.297Z,0.00
2023-05-22T01:10:02.346Z,0.00
2023-05-22T01:11:02.301Z,0.00
2023-05-22T01:12:02.509Z,0.00
2023-05-22T01:13:02.249Z,0.00
2023-05-22T01:14:02.297Z,0.00
2023-05-22T01:15:02.230Z,0.00
2023-05-22T01:16:02.303Z,0.00
2023-05-22T01:17:02.207Z,0.00
2023-05-22T01:18:02.277Z,0.00
2023-05-22T01:19:02.232Z,0.00
2023-05-22T01:20:02.291Z,0.00
2023-05-22T01:21:02.163Z,0.00
2023-05-22T01:22:02.220Z,0.00
2023-05-22T01:23:02.141Z,0.00
2023-05-22T01:24:02.251Z,0.00
2023-05-22T01:25:02.134Z,0.00
2023-05-22T01:26:02.184Z,0.00
2023-05-22T01:27:02.098Z,0.00
2023-05-22T01:28:02.197Z,0.00
2023-05-22T01:29:02.085Z,0.00
2023-05-22T01:30:02.118Z,0.00
2023-05-22T01:31:02.060Z,0.00
2023-05-22T01:32:02.095Z,0.00
2023-05-22T01:33:02.049Z,0.00
2023-05-22T01:34:02.151Z,0.00
2023-05-22T01:35:02.011Z,0.00
2023-05-22T01:36:02.055Z,0.00
2023-05-22T01:37:01.992Z,0.00
2023-05-22T01:38:02.043Z,0.00
2023-05-22T01:39:01.977Z,0.00
2023-05-22T01:40:02.271Z,0.00
2023-05-22T01:41:01.953Z,0.00
2023-05-22T01:42:02.009Z,0.00
2023-05-22T01:43:01.932Z,0.00
2023-05-22T01:44:02.121Z,0.00
2023-05-22T01:45:01.905Z,0.00
2023-05-22T01:46:01.984Z,0.00
2023-05-22T01:47:01.877Z,0.00
2023-05-22T01:48:02.009Z,0.00
2023-05-22T01:49:01.862Z,0.00
2023-05-22T01:50:01.913Z,0.00
2023-05-22T01:51:01.843Z,0.00
2023-05-22T01:52:01.894Z,0.00
2023-05-22T01:53:01.842Z,0.00
2023-05-22T01:54:01.864Z,0.00
2023-05-22T01:55:01.809Z,0.00
2023-05-22T01:56:01.850Z,0.00
2023-05-22T01:57:01.780Z,0.00
2023-05-22T01:58:01.818Z,0.00
2023-05-22T01:59:01.762Z,0.00
2023-05-22T02:00:01.805Z,0.00
2023-05-22T02:01:01.748Z,0.00
2023-05-22T02:02:01.843Z,0.00
2023-05-22T02:03:01.845Z,0.00
2023-05-22T02:04:01.775Z,0.00
2023-05-22T02:05:01.708Z,0.00
2023-05-22T02:06:01.745Z,0.00
2023-05-22T02:07:01.673Z,0.00
2023-05-22T02:08:01.714Z,0.00
2023-05-22T02:09:01.649Z,0.00
2023-05-22T02:10:01.732Z,0.00
2023-05-22T02:11:01.646Z,0.00
2023-05-22T02:12:01.678Z,0.00
2023-05-22T02:13:01.607Z,0.00
2023-05-22T02:14:01.661Z,0.00
2023-05-22T02:15:01.591Z,0.00
2023-05-22T02:16:01.647Z,0.00
2023-05-22T02:17:01.563Z,0.00
2023-05-22T02:18:02.052Z,0.00
2023-05-22T02:19:01.574Z,0.00
2023-05-22T02:20:01.664Z,0.00
2023-05-22T02:21:01.524Z,0.00
2023-05-22T02:22:01.598Z,0.00
2023-05-22T02:23:01.503Z,0.00
2023-05-22T02:24:01.535Z,0.00
2023-05-22T02:25:01.482Z,0.00
2023-05-22T02:26:01.672Z,0.00
2023-05-22T02:27:01.461Z,0.00
2023-05-22T02:28:01.498Z,0.00
2023-05-22T02:29:01.437Z,0.00
2023-05-22T02:30:01.495Z,0.00
2023-05-22T02:31:01.441Z,0.00
2023-05-22T02:32:01.453Z,0.00
2023-05-22T02:33:01.467Z,0.00
2023-05-22T02:34:01.443Z,0.00
2023-05-22T02:35:01.374Z,0.00
2023-05-22T02:36:01.472Z,0.00
2023-05-22T02:37:01.352Z,0.00
2023-05-22T02:38:01.519Z,0.00
2023-05-22T02:39:01.340Z,0.00
2023-05-22T02:40:01.409Z,0.00
2023-05-22T02:41:01.308Z,0.00
2023-05-22T02:42:01.355Z,0.00
2023-05-22T02:43:01.290Z,0.00
2023-05-22T02:44:01.350Z,0.00
2023-05-22T02:45:01.270Z,0.00
2023-05-22T02:46:01.467Z,0.00
2023-05-22T02:47:01.283Z,0.00
2023-05-22T02:48:01.315Z,0.00
2023-05-22T02:49:01.220Z,0.00
2023-05-22T02:50:01.275Z,0.00
2023-05-22T02:51:01.204Z,0.00
2023-05-22T02:52:01.251Z,0.00
2023-05-22T02:53:01.176Z,0.00
2023-05-22T02:54:01.239Z,0.00
2023-05-22T02:55:01.180Z,0.00
2023-05-22T02:56:01.219Z,0.00
2023-05-22T02:57:01.146Z,0.00
2023-05-22T02:58:01.185Z,0.00
2023-05-22T02:59:01.115Z,0.00
2023-05-22T03:00:01.172Z,0.00
2023-05-22T03:01:01.097Z,0.00
2023-05-22T03:02:01.238Z,0.00
2023-05-22T03:03:01.105Z,0.00
2023-05-22T03:04:01.162Z,0.00
2023-05-22T03:05:01.049Z,0.00
2023-05-22T03:06:01.107Z,0.00
2023-05-22T03:07:01.022Z,0.00
2023-05-22T03:08:01.021Z,0.00
2023-05-22T03:09:00.961Z,0.00
2023-05-22T03:10:01.018Z,0.00
2023-05-22T03:11:00.942Z,0.00
2023-05-22T03:12:00.978Z,0.00
2023-05-22T03:13:00.913Z,0.00
2023-05-22T03:14:00.977Z,0.00
2023-05-22T03:15:00.899Z,0.00
2023-05-22T03:16:00.963Z,0.00
2023-05-22T03:17:00.870Z,0.00
2023-05-22T03:18:00.934Z,0.00
2023-05-22T03:19:00.864Z,0.00
2023-05-22T03:20:00.885Z,0.00
2023-05-22T03:21:00.820Z,0.00
2023-05-22T03:22:00.869Z,0.00
2023-05-22T03:23:00.810Z,0.00
2023-05-22T03:24:00.851Z,0.00
2023-05-22T03:25:00.782Z,0.00
2023-05-22T03:26:00.844Z,0.00
2023-05-22T03:27:00.779Z,0.00
2023-05-22T03:28:00.817Z,0.00
2023-05-22T03:29:00.825Z,0.00
2023-05-22T03:30:00.782Z,0.00
2023-05-22T03:31:00.741Z,0.00
2023-05-22T03:32:00.765Z,0.00
2023-05-22T03:33:00.738Z,0.00
2023-05-22T03:34:00.812Z,0.00
2023-05-22T03:35:00.685Z,0.00
2023-05-22T03:36:00.720Z,0.00
2023-05-22T03:37:00.670Z,0.00
2023-05-22T03:38:00.708Z,0.00
2023-05-22T03:39:00.638Z,0.00
2023-05-22T03:40:00.677Z,0.00
2023-05-22T03:41:00.621Z,0.00
2023-05-22T03:42:00.654Z,0.00
2023-05-22T03:43:00.596Z,0.00
2023-05-22T03:44:00.642Z,0.00
2023-05-22T03:45:00.568Z,0.00
2023-05-22T03:46:00.684Z,0.00
2023-05-22T03:47:00.550Z,0.00
2023-05-22T03:48:00.651Z,0.00
2023-05-22T03:49:00.532Z,0.00
2023-05-22T03:50:00.565Z,0.00
2023-05-22T03:51:00.510Z,0.00
2023-05-22T03:52:00.558Z,0.00
2023-05-22T03:53:00.485Z,0.00
2023-05-22T03:54:00.542Z,0.00
2023-05-22T03:55:00.473Z,0.00
2023-05-22T03:56:00.523Z,0.00
2023-05-22T03:57:00.443Z,0.00
2023-05-22T03:58:00.494Z,0.00
2023-05-22T03:59:00.432Z,5.62
2023-05-22T04:00:00.458Z,5.62
2023-05-22T04:01:00.400Z,5.62
2023-05-22T04:02:00.471Z,5.62
2023-05-22T04:03:00.429Z,5.62
2023-05-22T04:04:00.416Z,5.62
2023-05-22T04:05:00.412Z,5.62
2023-05-22T04:06:00.426Z,5.62
2023-05-22T04:07:00.333Z,5.62
2023-05-22T04:08:00.384Z,5.62
2023-05-22T04:09:00.312Z,5.62
2023-05-22T04:10:00.380Z,5.62
2023-05-22T04:11:00.284Z,5.62
2023-05-22T04:12:00.338Z,5.62
2023-05-22T04:13:00.264Z,11.25
2023-05-22T04:14:00.318Z,11.25
2023-05-22T04:15:00.256Z,11.25
2023-05-22T04:16:00.310Z,11.25
2023-05-22T04:17:00.238Z,11.25
2023-05-22T04:18:00.347Z,11.25
2023-05-22T04:19:00.248Z,11.25
2023-05-22T04:20:00.247Z,11.25
2023-05-22T04:21:00.178Z,11.25
2023-05-22T04:22:00.242Z,11.25
2023-05-22T04:23:00.163Z,11.25
2023-05-22T04:24:00.204Z,11.25
2023-05-22T04:25:00.170Z,11.25
2023-05-22T04:26:00.192Z,11.25
2023-05-22T04:27:00.138Z,16.87
2023-05-22T04:28:00.166Z,16.87
2023-05-22T04:29:00.106Z,16.87
2023-05-22T04:30:00.186Z,16.87
2023-05-22T04:31:00.105Z,16.87
2023-05-22T04:32:00.153Z,16.87
2023-05-22T04:33:00.104Z,16.87
2023-05-22T04:34:00.166Z,16.87
2023-05-22T04:35:00.034Z,16.87
2023-05-22T04:36:00.135Z,16.87
2023-05-22T04:37:00.006Z,16.87
2023-05-22T04:38:00.089Z,22.50
2023-05-22T04:39:00.011Z,22.50
2023-05-22T04:40:00.039Z,22.50
2023-05-22T04:40:59.969Z,22.50
2023-05-22T04:42:00.042Z,22.50
2023-05-22T04:43:00.060Z,22.50
2023-05-22T04:44:00.003Z,28.12
2023-05-22T04:44:59.933Z,28.12
2023-05-22T04:45:59.970Z,28.12
2023-05-22T04:46:59.967Z,33.75
2023-05-22T04:48:00.050Z,33.75
2023-05-22T04:48:59.882Z,39.37
2023-05-22T04:49:59.966Z,39.37
2023-05-22T04:50:59.891Z,39.37
2023-05-22T04:51:59.922Z,33.75
2023-05-22T04:52:59.869Z,39.37
2023-05-22T04:53:59.905Z,45.00
2023-05-22T04:55:01.109Z,45.00
2023-05-22T04:55:59.872Z,39.37
2023-05-22T04:56:59.801Z,39.37
2023-05-22T04:57:59.838Z,45.00
2023-05-22T04:58:59.777Z,61.87
2023-05-22T04:59:59.822Z,56.25
2023-05-22T05:00:59.805Z,45.00
2023-05-22T05:01:59.792Z,33.75
2023-05-22T05:02:59.822Z,33.75
2023-05-22T05:03:59.832Z,33.75
2023-05-22T05:04:59.702Z,33.75
2023-05-22T05:05:59.769Z,33.75
2023-05-22T05:06:59.690Z,33.75
2023-05-22T05:07:59.750Z,33.75
2023-05-22T05:08:59.660Z,33.75
2023-05-22T05:09:59.732Z,33.75
2023-05-22T05:10:59.638Z,28.12
2023-05-22T05:11:59.714Z,28.12
2023-05-22T05:12:59.616Z,28.12
2023-05-22T05:13:59.706Z,22.50
2023-05-22T05:14:59.596Z,22.50
2023-05-22T05:15:59.755Z,22.50
2023-05-22T05:16:59.618Z,22.50
2023-05-22T05:17:59.784Z,22.50
2023-05-22T05:18:59.579Z,22.50
2023-05-22T05:19:59.625Z,28.12
2023-05-22T05:20:59.621Z,28.12
2023-05-22T05:21:59.600Z,28.12
2023-05-22T05:22:59.517Z,33.75
2023-05-22T05:23:59.592Z,33.75
2023-05-22T05:24:59.483Z,33.75
2023-05-22T05:25:59.549Z,33.75
2023-05-22T05:26:59.465Z,33.75
2023-05-22T05:27:59.527Z,33.75
2023-05-22T05:28:59.562Z,33.75
2023-05-22T05:29:59.444Z,33.75
2023-05-22T05:30:59.494Z,33.75
2023-05-22T05:31:59.484Z,33.75
2023-05-22T05:32:59.512Z,28.12
2023-05-22T05:33:59.399Z,28.12
2023-05-22T05:34:59.448Z,28.12
2023-05-22T05:35:59.384Z,28.12
2023-05-22T05:36:59.440Z,33.75
2023-05-22T05:37:59.359Z,33.75
2023-05-22T05:38:59.413Z,33.75
2023-05-22T05:39:59.342Z,33.75
2023-05-22T05:40:59.400Z,39.37
2023-05-22T05:41:59.323Z,39.37
2023-05-22T05:42:59.362Z,39.37
2023-05-22T05:43:59.295Z,39.37
2023-05-22T05:44:59.338Z,39.37
2023-05-22T05:45:59.297Z,39.37
2023-05-22T05:46:59.329Z,39.37
2023-05-22T05:47:59.317Z,39.37
2023-05-22T05:48:59.306Z,39.37
2023-05-22T05:49:59.244Z,39.37
2023-05-22T05:50:59.273Z,39.37
2023-05-22T05:51:59.214Z,33.75
2023-05-22T05:52:59.258Z,33.75
2023-05-22T05:53:59.194Z,33.75
2023-05-22T05:54:59.243Z,33.75
2023-05-22T05:55:59.167Z,33.75
2023-05-22T05:56:59.212Z,33.75
2023-05-22T05:57:59.146Z,33.75
2023-05-22T05:58:59.197Z,33.75
2023-05-22T05:59:59.132Z,28.12
2023-05-22T06:00:59.183Z,28.12
2023-05-22T06:01:59.112Z,28.12
2023-05-22T06:02:59.272Z,28.12
2023-05-22T06:03:59.246Z,28.12
2023-05-22T06:04:59.144Z,28.12
2023-05-22T06:05:59.130Z,28.12
2023-05-22T06:06:59.119Z,28.12
2023-05-22T06:07:59.078Z,28.12
2023-05-22T06:08:59.088Z,33.75
2023-05-22T06:09:59.020Z,33.75
2023-05-22T06:10:59.082Z,33.75
2023-05-22T06:11:59.011Z,39.37
2023-05-22T06:12:59.067Z,39.37
2023-05-22T06:13:58.979Z,39.37
2023-05-22T06:14:59.039Z,39.37
2023-05-22T06:16:01.634Z,45.00
2023-05-22T06:16:59.070Z,39.37
2023-05-22T06:17:59.022Z,33.75
2023-05-22T06:18:59.052Z,33.75
2023-05-22T06:19:58.927Z,33.75
2023-05-22T06:20:58.957Z,39.37
2023-05-22T06:21:58.892Z,39.37
2023-05-22T06:22:58.935Z,39.37
2023-05-22T06:23:58.895Z,39.37
2023-05-22T06:24:58.925Z,39.37
2023-05-22T06:25:58.865Z,33.75
2023-05-22T06:26:58.890Z,33.75
2023-05-22T06:27:58.832Z,28.12
2023-05-22T06:28:58.886Z,28.12
2023-05-22T06:29:58.818Z,28.12
2023-05-22T06:30:58.853Z,28.12
2023-05-22T06:31:58.844Z,28.12
2023-05-22T06:32:58.935Z,28.12
2023-05-22T06:33:58.912Z,28.12
2023-05-22T06:34:58.828Z,28.12
2023-05-22T06:35:58.746Z,22.50
2023-05-22T06:36:58.810Z,22.50
2023-05-22T06:37:58.724Z,22.50
2023-05-22T06:38:58.786Z,22.50
2023-05-22T06:39:58.703Z,22.50
2023-05-22T06:40:58.743Z,22.50
2023-05-22T06:41:58.682Z,28.12
2023-05-22T06:42:58.733Z,28.12
2023-05-22T06:43:58.661Z,28.12
2023-05-22T06:44:58.707Z,28.12
2023-05-22T06:45:58.649Z,28.12
2023-05-22T06:46:58.694Z,28.12
2023-05-22T06:47:58.672Z,33.75
2023-05-22T06:48:58.658Z,33.75
2023-05-22T06:49:58.602Z,33.75
2023-05-22T06:50:58.639Z,33.75
2023-05-22T06:51:58.610Z,39.37
2023-05-22T06:52:58.635Z,39.37
2023-05-22T06:53:58.558Z,45.00
2023-05-22T06:54:58.604Z,50.62
2023-05-22T06:55:58.540Z,61.87
2023-05-22T06:56:58.576Z,67.50
2023-05-22T06:57:58.513Z,67.50
2023-05-22T06:58:58.558Z,73.12
2023-05-22T06:59:58.490Z,61.87
2023-05-22T07:00:58.574Z,56.25
2023-05-22T07:01:58.469Z,50.62
2023-05-22T07:02:58.572Z,50.62
2023-05-22T07:03:58.454Z,45.00
2023-05-22T07:04:58.499Z,45.00
2023-05-22T07:05:58.450Z,45.00
2023-05-22T07:06:58.479Z,39.37
2023-05-22T07:07:58.401Z,39.37
2023-05-22T07:08:58.442Z,39.37
2023-05-22T07:09:58.391Z,39.37
2023-05-22T07:10:58.424Z,39.37
2023-05-22T07:11:58.361Z,39.37
2023-05-22T07:12:58.402Z,33.75
2023-05-22T07:13:58.346Z,33.75
2023-05-22T07:14:58.398Z,33.75
2023-05-22T07:15:58.341Z,33.75
2023-05-22T07:16:58.426Z,33.75
2023-05-22T07:17:58.330Z,33.75
2023-05-22T07:18:58.350Z,39.37
2023-05-22T07:19:58.275Z,33.75
2023-05-22T07:20:58.314Z,33.75
2023-05-22T07:21:58.252Z,33.75
2023-05-22T07:22:58.295Z,33.75
2023-05-22T07:23:58.238Z,39.37
2023-05-22T07:24:58.299Z,39.37
2023-05-22T07:25:58.211Z,39.37
2023-05-22T07:26:58.264Z,39.37
2023-05-22T07:27:58.195Z,45.00
2023-05-22T07:28:58.241Z,45.00
2023-05-22T07:29:58.168Z,45.00
2023-05-22T07:30:58.231Z,45.00
2023-05-22T07:31:58.250Z,50.62
2023-05-22T07:32:58.218Z,56.25
2023-05-22T07:33:58.136Z,56.25
2023-05-22T07:34:58.177Z,61.87
2023-05-22T07:35:58.104Z,56.25
2023-05-22T07:36:58.383Z,56.25
2023-05-22T07:37:58.089Z,56.25
2023-05-22T07:38:58.133Z,56.25
2023-05-22T07:39:58.067Z,50.62
2023-05-22T07:40:58.141Z,50.62
2023-05-22T07:41:59.459Z,50.62
2023-05-22T07:42:58.080Z,50.62
2023-05-22T07:43:58.017Z,50.62
2023-05-22T07:44:58.071Z,45.00
2023-05-22T07:45:58.016Z,45.00
2023-05-22T07:46:58.061Z,45.00
2023-05-22T07:47:57.975Z,50.62
2023-05-22T07:48:58.023Z,50.62
2023-05-22T07:49:57.957Z,50.62
2023-05-22T07:50:57.995Z,56.25
2023-05-22T07:51:57.935Z,61.87
2023-05-22T07:52:57.970Z,61.87
2023-05-22T07:54:56.958Z,61.87
2023-05-22T07:55:57.967Z,67.50
2023-05-22T07:56:57.868Z,67.50
2023-05-22T07:57:57.939Z,67.50
2023-05-22T07:58:57.842Z,73.12
2023-05-22T07:59:57.924Z,73.12
2023-05-22T08:00:57.822Z,0.00
2023-05-22T08:01:58.536Z,22.50
2023-05-22T08:02:57.896Z,22.50
2023-05-22T08:03:57.961Z,28.12
2023-05-22T08:04:57.829Z,28.12
2023-05-22T08:05:57.870Z,28.12
2023-05-22T08:06:57.757Z,28.12
2023-05-22T08:07:57.836Z,28.12
2023-05-22T08:08:57.736Z,33.75
2023-05-22T08:09:57.810Z,33.75
2023-05-22T08:11:04.280Z,33.75
2023-05-22T08:11:57.786Z,33.75
2023-05-22T08:12:57.692Z,33.75
2023-05-22T08:13:57.757Z,28.12
2023-05-22T08:14:57.673Z,28.12
2023-05-22T08:16:00.148Z,28.12
2023-05-22T08:16:57.701Z,28.12
2023-05-22T08:17:57.774Z,33.75
2023-05-22T08:18:57.653Z,33.75
2023-05-22T08:19:57.810Z,33.75
2023-05-22T08:20:57.647Z,33.75
2023-05-22T08:21:57.671Z,33.75
2023-05-22T08:22:57.585Z,33.75
2023-05-22T08:23:57.660Z,33.75
2023-05-22T08:24:57.569Z,33.75
2023-05-22T08:25:57.640Z,33.75
2023-05-22T08:26:57.543Z,33.75
2023-05-22T08:27:57.627Z,33.75
2023-05-22T08:28:57.534Z,33.75
2023-05-22T08:29:57.600Z,33.75
2023-05-22T08:30:57.500Z,33.75
2023-05-22T08:31:57.706Z,33.75
2023-05-22T08:32:57.480Z,33.75
2023-05-22T08:33:57.543Z,33.75
2023-05-22T08:34:57.458Z,28.12
2023-05-22T08:35:57.540Z,28.12
2023-05-22T08:36:57.443Z,22.50
2023-05-22T08:37:57.523Z,22.50
2023-05-22T08:38:57.412Z,22.50
2023-05-22T08:39:57.478Z,22.50
2023-05-22T08:40:57.615Z,22.50
2023-05-22T08:41:57.610Z,22.50
2023-05-22T08:42:57.374Z,22.50
2023-05-22T08:43:57.449Z,28.12
2023-05-22T08:44:57.361Z,28.12
2023-05-22T08:45:57.465Z,28.12
2023-05-22T08:46:57.374Z,28.12
2023-05-22T08:47:57.428Z,28.12
2023-05-22T08:48:57.307Z,28.12
2023-05-22T08:49:57.380Z,28.12
2023-05-22T08:50:57.295Z,28.12
2023-05-22T08:51:57.546Z,28.12
2023-05-22T08:52:57.273Z,28.12
2023-05-22T08:53:57.357Z,28.12
2023-05-22T08:54:57.253Z,28.12
2023-05-22T08:55:57.319Z,28.12
2023-05-22T08:56:57.759Z,28.12
2023-05-22T08:57:57.346Z,28.12
2023-05-22T08:58:57.199Z,28.12
2023-05-22T08:59:57.273Z,28.12
2023-05-22T09:00:57.212Z,28.12
2023-05-22T09:01:57.244Z,28.12
2023-05-22T09:02:57.178Z,28.12
2023-05-22T09:03:57.244Z,28.12
2023-05-22T09:04:57.155Z,28.12
2023-05-22T09:05:57.203Z,22.50
2023-05-22T09:06:57.129Z,22.50
2023-05-22T09:08:02.515Z,22.50
2023-05-22T09:08:57.093Z,22.50
2023-05-22T09:09:57.163Z,22.50
2023-05-22T09:10:57.083Z,22.50
2023-05-22T09:11:57.270Z,22.50
2023-05-22T09:12:57.083Z,22.50
2023-05-22T09:13:57.129Z,22.50
2023-05-22T09:14:57.027Z,22.50
2023-05-22T09:15:57.123Z,22.50
2023-05-22T09:16:57.046Z,22.50
2023-05-22T09:17:57.180Z,22.50
2023-05-22T09:18:57.008Z,22.50
2023-05-22T09:19:57.050Z,22.50
2023-05-22T09:20:56.981Z,22.50
2023-05-22T09:21:57.023Z,22.50
2023-05-22T09:22:56.993Z,22.50
2023-05-22T09:23:57.000Z,16.87
2023-05-22T09:24:56.942Z,16.87
2023-05-22T09:25:56.990Z,16.87
2023-05-22T09:26:56.917Z,16.87
2023-05-22T09:27:56.954Z,16.87
2023-05-22T09:28:56.906Z,16.87
2023-05-22T09:29:56.944Z,16.87
2023-05-22T09:30:56.910Z,16.87
2023-05-22T09:31:56.944Z,16.87
2023-05-22T09:32:56.875Z,16.87
2023-05-22T09:33:57.909Z,16.87
2023-05-22T09:34:56.915Z,16.87
2023-05-22T09:35:56.813Z,16.87
2023-05-22T09:36:56.892Z,16.87
2023-05-22T09:37:56.847Z,16.87
2023-05-22T09:38:56.864Z,16.87
2023-05-22T09:39:56.772Z,16.87
2023-05-22T09:40:56.837Z,16.87
2023-05-22T09:41:56.748Z,16.87
2023-05-22T09:42:56.820Z,16.87
2023-05-22T09:43:56.728Z,16.87
2023-05-22T09:44:56.798Z,16.87
2023-05-22T09:45:56.716Z,16.87
2023-05-22T09:46:56.772Z,16.87
2023-05-22T09:47:56.740Z,16.87
2023-05-22T09:48:56.749Z,16.87
2023-05-22T09:49:56.697Z,16.87
2023-05-22T09:50:56.728Z,16.87
2023-05-22T09:51:56.646Z,16.87
2023-05-22T09:52:56.718Z,16.87
2023-05-22T09:53:56.618Z,16.87
2023-05-22T09:54:56.689Z,16.87
2023-05-22T09:55:56.598Z,16.87
2023-05-22T09:56:56.675Z,16.87
2023-05-22T09:57:56.587Z,16.87
2023-05-22T09:58:56.668Z,16.87
2023-05-22T09:59:56.555Z,16.87
2023-05-22T10:00:56.632Z,16.87
2023-05-22T10:01:56.535Z,16.87
2023-05-22T10:02:56.631Z,16.87
2023-05-22T10:03:56.536Z,16.87
2023-05-22T10:04:56.632Z,16.87
2023-05-22T10:05:56.496Z,16.87
2023-05-22T10:06:56.566Z,16.87
2023-05-22T10:07:56.474Z,16.87
2023-05-22T10:08:56.543Z,16.87
2023-05-22T10:09:56.447Z,16.87
2023-05-22T10:10:56.520Z,16.87
2023-05-22T10:11:56.429Z,16.87
2023-05-22T10:12:56.515Z,16.87
2023-05-22T10:13:56.405Z,16.87
2023-05-22T10:14:56.465Z,16.87
2023-05-22T10:15:56.403Z,16.87
2023-05-22T10:16:56.457Z,16.87
2023-05-22T10:17:56.392Z,16.87
2023-05-22T10:18:56.440Z,16.87
2023-05-22T10:19:56.353Z,16.87
2023-05-22T10:20:56.404Z,16.87
2023-05-22T10:21:56.334Z,16.87
2023-05-22T10:22:56.382Z,16.87
2023-05-22T10:23:56.302Z,16.87
2023-05-22T10:24:56.370Z,16.87
2023-05-22T10:25:57.541Z,16.87
2023-05-22T10:26:56.277Z,16.87
2023-05-22T10:27:56.329Z,16.87
2023-05-22T10:28:56.254Z,16.87
2023-05-22T10:29:56.305Z,16.87
2023-05-22T10:30:56.247Z,16.87
2023-05-22T10:31:56.277Z,16.87
2023-05-22T10:32:56.294Z,11.25
2023-05-22T10:33:56.295Z,11.25
2023-05-22T10:34:56.213Z,11.25
2023-05-22T10:35:56.237Z,11.25
2023-05-22T10:37:03.034Z,11.25
2023-05-22T10:37:56.225Z,11.25
2023-05-22T10:38:56.189Z,11.25
2023-05-22T10:39:56.201Z,11.25
2023-05-22T10:40:56.133Z,11.25
2023-05-22T10:41:56.177Z,11.25
2023-05-22T10:42:56.110Z,11.25
2023-05-22T10:43:56.169Z,11.25
2023-05-22T10:44:56.088Z,11.25
2023-05-22T10:45:56.200Z,11.25
2023-05-22T10:46:56.102Z,11.25
2023-05-22T10:47:56.132Z,11.25
2023-05-22T10:48:56.049Z,11.25
2023-05-22T10:49:56.099Z,11.25
2023-05-22T10:50:56.560Z,11.25
2023-05-22T10:51:56.078Z,11.25
2023-05-22T10:52:56.014Z,11.25
2023-05-22T10:53:56.052Z,11.25
2023-05-22T10:54:55.983Z,11.25
2023-05-22T10:55:56.036Z,11.25
2023-05-22T10:56:55.962Z,11.25
2023-05-22T10:57:56.028Z,11.25
2023-05-22T10:58:55.982Z,11.25
2023-05-22T10:59:56.025Z,11.25
2023-05-22T11:00:55.918Z,11.25
2023-05-22T11:01:55.999Z,11.25
2023-05-22T11:02:58.574Z,11.25
2023-05-22T11:03:55.950Z,11.25
2023-05-22T11:04:55.915Z,11.25
2023-05-22T11:05:55.927Z,11.25
2023-05-22T11:06:55.860Z,11.25
2023-05-22T11:07:55.897Z,11.25
2023-05-22T11:08:55.835Z,11.25
2023-05-22T11:09:55.892Z,11.25
2023-05-22T11:10:55.820Z,11.25
2023-05-22T11:11:55.866Z,11.25
2023-05-22T11:12:55.792Z,11.25
2023-05-22T11:13:55.846Z,11.25
2023-05-22T11:14:55.772Z,11.25
2023-05-22T11:15:55.822Z,11.25
2023-05-22T11:16:55.761Z,11.25
2023-05-22T11:17:55.965Z,11.25
2023-05-22T11:18:55.759Z,5.62
2023-05-22T11:19:55.825Z,5.62
2023-05-22T11:20:55.712Z,5.62
2023-05-22T11:21:55.756Z,5.62
2023-05-22T11:22:55.689Z,11.25
2023-05-22T11:23:55.769Z,11.25
2023-05-22T11:24:55.670Z,11.25
2023-05-22T11:25:55.710Z,11.25
2023-05-22T11:26:55.652Z,11.25
2023-05-22T11:27:55.852Z,11.25
2023-05-22T11:28:55.641Z,5.62
2023-05-22T11:29:55.683Z,11.25
2023-05-22T11:30:55.643Z,5.62
2023-05-22T11:31:55.655Z,5.62
2023-05-22T11:32:55.603Z,5.62
2023-05-22T11:33:55.636Z,5.62
2023-05-22T11:34:55.566Z,5.62
2023-05-22T11:35:55.615Z,5.62
2023-05-22T11:36:55.538Z,11.25
2023-05-22T11:37:55.735Z,11.25
2023-05-22T11:38:55.519Z,11.25
2023-05-22T11:39:55.564Z,11.25
2023-05-22T11:40:55.502Z,11.25
2023-05-22T11:41:55.574Z,11.25
2023-05-22T11:42:55.489Z,11.25
2023-05-22T11:43:55.554Z,11.25
2023-05-22T11:44:55.463Z,11.25
2023-05-22T11:45:55.557Z,11.25
2023-05-22T11:46:55.485Z,11.25
2023-05-22T11:47:55.487Z,11.25
2023-05-22T11:48:55.418Z,11.25
2023-05-22T11:49:55.464Z,11.25
2023-05-22T11:50:55.415Z,11.25
2023-05-22T11:51:55.448Z,11.25
2023-05-22T11:52:55.377Z,11.25
2023-05-22T11:53:55.439Z,11.25
2023-05-22T11:54:55.352Z,11.25
2023-05-22T11:55:55.404Z,11.25
2023-05-22T11:56:55.331Z,11.25
2023-05-22T11:57:55.379Z,5.62
2023-05-22T11:58:55.313Z,5.62
2023-05-22T11:59:55.381Z,5.62
2023-05-22T12:00:55.323Z,5.62
2023-05-22T12:01:55.334Z,11.25
2023-05-22T12:02:55.388Z,11.25
2023-05-22T12:03:55.397Z,11.25
2023-05-22T12:04:55.252Z,11.25
2023-05-22T12:05:55.320Z,11.25
2023-05-22T12:06:55.304Z,11.25
2023-05-22T12:07:55.272Z,11.25
2023-05-22T12:08:55.213Z,11.25
2023-05-22T12:09:55.252Z,11.25
2023-05-22T12:10:55.320Z,11.25
2023-05-22T12:11:55.152Z,11.25
2023-05-22T12:12:55.237Z,11.25
2023-05-22T12:13:55.129Z,11.25
2023-05-22T12:14:55.208Z,11.25
2023-05-22T12:15:55.120Z,11.25
2023-05-22T12:16:55.303Z,11.25
2023-05-22T12:17:55.122Z,11.25
2023-05-22T12:18:55.210Z,11.25
2023-05-22T12:19:55.070Z,11.25
2023-05-22T12:20:55.143Z,11.25
2023-05-22T12:21:55.048Z,11.25
2023-05-22T12:22:55.121Z,11.25
2023-05-22T12:23:55.054Z,11.25
2023-05-22T12:24:55.100Z,11.25
2023-05-22T12:25:55.004Z,11.25
2023-05-22T12:26:55.074Z,11.25
2023-05-22T12:27:54.985Z,11.25
2023-05-22T12:28:55.057Z,11.25
2023-05-22T12:29:54.960Z,11.25
2023-05-22T12:30:55.034Z,11.25
2023-05-22T12:31:54.955Z,11.25
2023-05-22T12:32:55.050Z,11.25
2023-05-22T12:33:54.986Z,11.25
2023-05-22T12:34:54.995Z,11.25
2023-05-22T12:35:54.898Z,11.25
2023-05-22T12:36:54.967Z,5.62
2023-05-22T12:37:54.872Z,5.62
2023-05-22T12:38:54.946Z,11.25
2023-05-22T12:39:54.857Z,11.25
2023-05-22T12:40:54.922Z,11.25
2023-05-22T12:41:54.835Z,11.25
2023-05-22T12:42:54.911Z,11.25
2023-05-22T12:43:54.828Z,11.25
2023-05-22T12:44:54.906Z,11.25
2023-05-22T12:45:54.861Z,11.25
2023-05-22T12:46:54.905Z,11.25
2023-05-22T12:47:54.805Z,5.62
2023-05-22T12:48:54.835Z,5.62
2023-05-22T12:49:54.755Z,5.62
2023-05-22T12:50:54.830Z,11.25
2023-05-22T12:51:54.732Z,11.25
2023-05-22T12:52:54.816Z,11.25
2023-05-22T12:53:54.835Z,11.25
2023-05-22T12:54:54.785Z,11.25
2023-05-22T12:55:54.683Z,5.62
2023-05-22T12:56:54.750Z,5.62
2023-05-22T12:57:54.668Z,11.25
2023-05-22T12:58:54.732Z,11.25
2023-05-22T12:59:54.657Z,11.25
2023-05-22T13:00:54.722Z,11.25
2023-05-22T13:01:54.784Z,11.25